• Join FlightAware (Why Join?)
  • Login
  • US Flag 
05:22AM EST


 

Airport Tracker/Info


-or-


 

Live Flight TrackerFlight Track Log ✈ CES2123 ✈ 13-May-2013 ✈ ZLIC / INC - ZBAA / PEK

Flight Track Log - Related Links

Times and Time Zones

All times are in EDT time to prevent confusion due to time zone crossing. See the CES2123 flight status page for this flight to view local times or setup timezone preferences in your user account.

Time Position Orientation Groundspeed Altitude Reporting Facility
EDT Latitude Longitude Course Direction KTS MPH feet Rate Location/Type
07:14AM 38.8317 108.8260 74° East  Level Estimated
07:15AM 38.8571 108.9550 76° East  Level Estimated
07:16AM 38.8824 109.0841 76° East  Level Estimated
07:17AM 38.9075 109.2132 76° East  Level Estimated
07:18AM 38.9324 109.3425 76° East  Level Estimated
07:19AM 38.9572 109.4718 76° East  Level Estimated
07:20AM 38.9819 109.6012 76° East  Level Estimated
07:21AM 39.0064 109.7308 76° East  Level Estimated
07:22AM 39.0308 109.8604 76° East  Level Estimated
07:23AM 39.0550 109.9901 76° East  Level Estimated
07:24AM 39.0792 110.1199 77° East  Level Estimated
07:25AM 39.1031 110.2497 77° East  Level Estimated
07:26AM 39.1269 110.3797 77° East  Level Estimated
07:27AM 39.1506 110.5098 77° East  Level Estimated
07:28AM 39.1741 110.6399 77° East  Level Estimated
07:29AM 39.1975 110.7701 77° East  Level Estimated
07:30AM 39.2207 110.9005 77° East  Level Estimated
07:31AM 39.2438 111.0309 77° East  Level Estimated
07:32AM 39.2667 111.1614 77° East  Level Estimated
07:33AM 39.2895 111.2919 77° East  Level Estimated
07:34AM 39.3122 111.4226 77° East  Level Estimated
07:35AM 39.3347 111.5533 77° East  Level Estimated
07:36AM 39.3570 111.6842 77° East  Level Estimated
07:37AM 39.3792 111.8151 78° East  Level Estimated
07:38AM 39.4013 111.9461 78° East  Level Estimated
07:39AM 39.4232 112.0771 78° East  Level Estimated
07:40AM 39.4450 112.2083 78° East  Level Estimated
07:41AM 39.4666 112.3395 78° East  Level Estimated
07:42AM 39.4881 112.4709 78° East  Level Estimated
07:43AM 39.5094 112.6023 78° East  Level Estimated
07:44AM 39.5306 112.7337 78° East  Level Estimated
07:45AM 39.5516 112.8653 78° East  Level Estimated
07:46AM 39.5725 112.9969 78° East  Level Estimated
07:47AM 39.5932 113.1287 78° East  Level Estimated
07:48AM 39.6138 113.2605 78° East  Level Estimated
07:49AM 39.6343 113.3923 79° East  Level Estimated
07:50AM 39.6545 113.5243 79° East  Level Estimated
07:51AM 39.6747 113.6563 79° East  Level Estimated
07:52AM 39.6947 113.7884 79° East  Level Estimated
07:53AM 39.7145 113.9206 79° East  Level Estimated
07:54AM 39.7342 114.0529 79° East  Level Estimated
07:55AM 39.7537 114.1852 79° East  Level Estimated
07:56AM 39.7731 114.3176 79° East  Level Estimated
07:57AM 39.7924 114.4501 79° East  Level Estimated
07:58AM 39.8114 114.5827 79° East  Level Estimated
07:59AM 39.8304 114.7153 79° East  Level Estimated
08:00AM 39.8492 114.8480 80° East  Level Estimated
08:01AM 39.8678 114.9808 80° East  Level Estimated
08:02AM 39.8863 115.1137 80° East  Level Estimated
08:03AM 39.9046 115.2466 80° East  Level Estimated
08:04AM 39.9228 115.3796 80° East  Level Estimated
08:05AM 39.9408 115.5126 80° East  Level Estimated
08:06AM 39.9587 115.6458 80° East  Level Estimated
08:07AM 39.9764 115.7790 80° East  Level Estimated
08:08AM 39.9939 115.9122 80° East  Level Estimated
08:09AM 40.0114 116.0456 80° East  Level Estimated
08:10AM 40.0286 116.1790 80° East  Level Estimated
08:11AM 40.0457 116.3124 80° East  Level Estimated
08:12AM 40.0627 116.4460 81° East  Level Estimated
08:13AM 40.0795 116.5796 81° East  Level Estimated
08:14AM 40.0801 116.5846 81° East  Level Estimated
08:15AM 40.0801 116.5846 288° West  Level Estimated
08:16AM 40.0801 116.5846 288° West  Level Estimated
08:17AM 40.0801 116.5846 288° West  Level Estimated
08:18AM 40.0801 116.5846 288° West  Level Estimated
08:19AM 40.0801 116.5846 288° West  Level Estimated
08:20AM 40.0801 116.5846 288° West  Level Estimated
08:21AM 40.0801 116.5846 288° West  Level Estimated
08:22AM 40.0801 116.5846 288° West  Level Estimated
08:23AM 40.0801 116.5846 288° West  Level Estimated
08:24AM 40.0801 116.5846 288° West  Level Estimated
08:25AM 40.0801 116.5846 288° West  Level Estimated
08:26AM 40.0801 116.5846 288° West  Level Estimated
08:27AM 40.0801 116.5846 288° West  Level Estimated
08:28AM 40.0801 116.5846 288° West  Level Estimated
08:29AM 40.0801 116.5846 288° West  Level Estimated